Airport View

Enter AWOS ICAO identifier for current METAR.

ex. KFNL

KPYM 191952Z AUTO 20010G17KT 10SM CLR 31/23 A2991 RMK AO2 SLP128 T03060228

19 Aug 2019 20:43

Frequency: 135.625

Phone: 508-746-8003

Other Area AWOS: KGHG - KTAN - KEWB - KFMH

TAF KFMH 191739Z 1918/2018 23014KT P6SM SKC FM192000 21011G18KT P6SM FEW250 FM192300 23009KT P6SM BKN200 FM200500 26005KT P6SM SCT200 FM200800 30004KT P6SM FEW250 FM201100 33004KT P6SM FEW250